^^
Datos históricos de la estación: Murcia-Puente Tocinos
Diario Informe para Noviembre 21, 2019 Unidades:  Métrico    Ingés   Ambas
Diario Semanal Mensual Anual
  Máxima: Mínima: Promedio:
Temperatura: 15.4 °C 7.7 °C 11.6 °C
Punto de rocio: 10.2 °C 6 °C 8.1 °C
Humedad: 90% 63% 80%
Velocidad viento: 8.4km/h 0km/h 4.6km/h
Racha viento: 16.7km/h - -
Viento- - Sur
Presión: 1010.2 hPa 1007.2 hPa -
Precipitación: 0.3 mm    
 
 
Tabla de datos para Noviembre 21, 2019
Hora Temperatura Punto de rocio Presión Viento Velocidad viento Racha viento Humedad Intensidad lluvia(por hora) Nubes
00:04 11.4 °C 9.6 °C 1008.9 hPa Calm     88.6% 0.0 mm
00:09 11.4 °C 9.7 °C 1008.9 hPa Calm     89% 0.0 mm
00:14 11.4 °C 9.7 °C 1008.8 hPa Calm     89% 0.0 mm
00:19 11.4 °C 9.7 °C 1008.8 hPa Calm   5.6 km/h 89% 0.0 mm
00:24 11.4 °C 9.7 °C 1008.8 hPa ONO 1.5 km/h 6.9 km/h 89% 0.0 mm
00:29 11.4 °C 9.5 °C 1008.8 hPa SSE 2.2 km/h 9.3 km/h 88.3% 0.0 mm
00:34 11.2 °C 9.4 °C 1008.8 hPa SSE 3.9 km/h 9.7 km/h 88.8% 0.0 mm
00:39 11.1 °C 9.3 °C 1008.8 hPa SSE 4.7 km/h 8 km/h 89% 0.0 mm
00:44 11 °C 9.2 °C 1008.8 hPa Sur 4.9 km/h 8.4 km/h 89% 0.0 mm
00:49 10.9 °C 9.2 °C 1008.8 hPa SSE 5 km/h 9.3 km/h 89% 0.0 mm
00:54 10.9 °C 9.2 °C 1008.8 hPa SSE 5.5 km/h 10.3 km/h 89% 0.0 mm
00:59 10.8 °C 9.1 °C 1008.8 hPa SSE 5.8 km/h 11.3 km/h 89% 0.0 mm
01:04 10.8 °C 9.1 °C 1008.8 hPa SSE 4.4 km/h 8 km/h 89% 0.0 mm
01:09 10.8 °C 9.1 °C 1008.8 hPa SSE 3.9 km/h 7.4 km/h 89% 0.0 mm
01:14 10.7 °C 9 °C 1008.7 hPa SSE 3.2 km/h 9.5 km/h 89% 0.0 mm
01:19 10.7 °C 8.9 °C 1008.7 hPa SSE 2.9 km/h 10 km/h 89% 0.0 mm
01:24 10.6 °C 8.9 °C 1008.7 hPa Sur 5.4 km/h 9.7 km/h 89% 0.0 mm
01:29 10.6 °C 8.9 °C 1008.7 hPa SSE 6.5 km/h 11.1 km/h 89% 0.0 mm
01:34 10.4 °C 8.7 °C 1008.7 hPa SSE 6 km/h 11.3 km/h 89% 0.0 mm
01:39 10.3 °C 8.6 °C 1008.7 hPa SSO 5.8 km/h 11.3 km/h 89% 0.0 mm
01:44 10.3 °C 8.6 °C 1008.6 hPa SO 6.2 km/h 9.7 km/h 89% 0.0 mm
01:49 10.4 °C 8.6 °C 1008.6 hPa SO 6.5 km/h 11.1 km/h 89% 0.0 mm
01:54 10.4 °C 8.6 °C 1008.7 hPa SO 6.5 km/h 11.9 km/h 88.6% 0.0 mm
01:59 10.5 °C 8.6 °C 1008.7 hPa SSO 6.5 km/h 12.2 km/h 87.8% 0.0 mm
02:04 10.6 °C 8.5 °C 1008.7 hPa SSO 7.3 km/h 14.5 km/h 87% 0.0 mm
02:09 10.7 °C 8.4 °C 1008.7 hPa SSO 7.6 km/h 12.9 km/h 86% 0.0 mm
02:14 10.7 °C 8.4 °C 1008.6 hPa SSO 6.8 km/h 11.3 km/h 85.6% 0.0 mm
02:19 10.7 °C 8.3 °C 1008.6 hPa SSO 6.5 km/h 13 km/h 84.9% 0.0 mm
02:24 10.8 °C 8.2 °C 1008.6 hPa SSO 6.5 km/h 12.9 km/h 84% 0.0 mm
02:29 10.8 °C 8.2 °C 1008.5 hPa Sur 6.5 km/h 10 km/h 84% 0.0 mm
02:34 10.8 °C 8.2 °C 1008.5 hPa Sur 6 km/h 9.7 km/h 84% 0.0 mm
02:39 10.7 °C 8.2 °C 1008.5 hPa Sur 5.8 km/h 9.3 km/h 84.7% 0.0 mm
02:44 10.6 °C 8.2 °C 1008.4 hPa SSO 6.2 km/h 9.7 km/h 85% 0.0 mm
02:49 10.6 °C 8.1 °C 1008.4 hPa SSO 6.5 km/h 9.7 km/h 85% 0.0 mm
02:54 10.4 °C 8 °C 1008.5 hPa SSO 6 km/h 10 km/h 85% 0.0 mm
02:59 10.4 °C 8 °C 1008.5 hPa SO 5.8 km/h 9.7 km/h 85% 0.0 mm
03:04 10.4 °C 8 °C 1008.5 hPa SO 5.8 km/h 9.7 km/h 85% 0.0 mm
03:09 10.3 °C 7.9 °C 1008.5 hPa SO 5.8 km/h 9.7 km/h 85% 0.0 mm
03:14 10.3 °C 7.9 °C 1008.5 hPa SSO 6.2 km/h 10 km/h 85% 0.0 mm
03:19 10.3 °C 7.9 °C 1008.5 hPa SO 6.5 km/h 11.9 km/h 85% 0.0 mm
03:24 10.3 °C 7.9 °C 1008.6 hPa SO 6.8 km/h 11.3 km/h 84.9% 0.0 mm
03:29 10.2 °C 7.7 °C 1008.6 hPa SO 6.9 km/h 11.3 km/h 84% 0.0 mm
03:34 10.2 °C 7.6 °C 1008.6 hPa SSO 6.2 km/h 11.3 km/h 84% 0.0 mm
03:39 10.2 °C 7.6 °C 1008.6 hPa SSE 5.8 km/h 13 km/h 84% 0.0 mm
03:44 10.1 °C 7.6 °C 1008.5 hPa SSE 7.6 km/h 13 km/h 84.6% 0.0 mm
03:49 9.9 °C 7.5 °C 1008.5 hPa Sur 8.4 km/h 12.9 km/h 85% 0.0 mm
03:54 9.8 °C 7.5 °C 1008.5 hPa Sur 7.4 km/h 11.9 km/h 85.9% 0.0 mm
03:59 9.6 °C 7.3 °C 1008.3 hPa SSE 6.9 km/h 13 km/h 86% 0.0 mm
04:04 9.3 °C 7.2 °C 1008.3 hPa Sur 7.4 km/h 12.9 km/h 86.4% 0.0 mm
04:09 9.2 °C 7.2 °C 1008.3 hPa Sur 7.6 km/h 11.3 km/h 87% 0.0 mm
04:14 9.3 °C 7.2 °C 1008.3 hPa Sur 7.1 km/h 11.3 km/h 87% 0.0 mm
04:19 9.3 °C 7.2 °C 1008.3 hPa SO 6.9 km/h 8.4 km/h 87% 0.0 mm
04:24 9.4 °C 7.3 °C 1008.4 hPa OSO 5.6 km/h 9.3 km/h 87% 0.0 mm
04:29 9.4 °C 7.3 °C 1008.4 hPa Oeste 5 km/h 9.7 km/h 87% 0.0 mm
04:34 9.3 °C 7.2 °C 1008.4 hPa OSO 5.5 km/h 9.7 km/h 87% 0.0 mm
04:39 9.2 °C 7.2 °C 1008.5 hPa OSO 5.8 km/h 9.7 km/h 87% 0.0 mm
04:44 9.2 °C 7.2 °C 1008.5 hPa SO 5 km/h 8.7 km/h 87% 0.0 mm
04:49 9.1 °C 7.1 °C 1008.5 hPa SO 4.7 km/h 8 km/h 87% 0.0 mm
04:54 9.1 °C 7.1 °C 1008.5 hPa SSE 4.7 km/h 8 km/h 87% 0.0 mm
04:59 9.1 °C 7.1 °C 1008.4 hPa SSE 4.7 km/h 8.4 km/h 87% 0.0 mm
05:04 9 °C 7 °C 1008.4 hPa SE 4.9 km/h 8.4 km/h 87% 0.0 mm
05:09 8.9 °C 6.8 °C 1008.5 hPa SE 5 km/h 9.5 km/h 87% 0.0 mm
05:14 8.8 °C 6.9 °C 1008.5 hPa Sur 5.5 km/h 9.7 km/h 87.6% 0.0 mm
05:19 8.7 °C 6.8 °C 1008.5 hPa Sur 5.8 km/h 9.7 km/h 88% 0.0 mm
05:24 8.7 °C 6.9 °C 1008.5 hPa SSO 5.8 km/h 9.7 km/h 88% 0.0 mm
05:29 8.8 °C 6.9 °C 1008.4 hPa Sur 5.8 km/h 9.7 km/h 88% 0.0 mm
05:34 8.8 °C 7 °C 1008.4 hPa SO 5.8 km/h 9.7 km/h 88% 0.0 mm
05:39 8.9 °C 7 °C 1008.4 hPa Oeste 5.8 km/h 8 km/h 87.8% 0.0 mm
05:44 9 °C 6.9 °C 1008.3 hPa ONO 4.4 km/h 8 km/h 87% 0.0 mm
05:49 9 °C 6.9 °C 1008.3 hPa ONO 3.9 km/h 4.8 km/h 87% 0.0 mm
05:54 8.9 °C 6.9 °C 1008.6 hPa Oeste 2.7 km/h 5.8 km/h 87% 0.0 mm
05:59 8.8 °C 6.7 °C 1008.6 hPa SE 2.2 km/h 8.4 km/h 86.5% 0.0 mm
06:04 8.7 °C 6.6 °C 1008.6 hPa SE 2.7 km/h 8 km/h 87% 0.0 mm
06:09 8.5 °C 6.5 °C 1008.6 hPa SE 2.9 km/h 3.2 km/h 87% 0.0 mm
06:14 8.4 °C 6.5 °C 1008.5 hPa SE 0.9 km/h   87.8% 0.0 mm
06:19 8.4 °C 6.5 °C 1008.5 hPa Calm   6.9 km/h 88% 0.0 mm
06:24 8.3 °C 6.5 °C 1008.5 hPa SE 2 km/h 13.7 km/h 88% 0.0 mm
06:29 8.1 °C 6.2 °C 1008.2 hPa SE 2.9 km/h 14.5 km/h 88% 0.0 mm
06:34 7.9 °C 6.2 °C 1008.2 hPa SE 6.1 km/h 9.7 km/h 88.7% 0.0 mm
06:39 7.9 °C 6.2 °C 1008.4 hPa Sur 7.6 km/h 16.7 km/h 89% 0.0 mm
06:44 7.8 °C 6.1 °C 1008.4 hPa SO 7.1 km/h 16.1 km/h 89% 0.0 mm
06:49 7.9 °C 6.2 °C 1008.4 hPa SSO 6.9 km/h 11.3 km/h 89.3% 0.0 mm
06:54 7.9 °C 6.3 °C 1008.5 hPa Sur 4.4 km/h 8 km/h 89.8% 0.0 mm
06:59 7.9 °C 6.3 °C 1008.5 hPa Sur 3.2 km/h 6.4 km/h 89.7% 0.0 mm
07:04 8 °C 6.3 °C 1008.5 hPa SSE 3 km/h 7.4 km/h 89% 0.0 mm
07:09 7.9 °C 6.2 °C 1008.7 hPa SSE 2.9 km/h 9.5 km/h 89% 0.0 mm
07:14 7.9 °C 6.2 °C 1008.7 hPa SSE 3.6 km/h 9.7 km/h 89% 0.0 mm
07:19 7.8 °C 6.1 °C 1008.7 hPa Sur 3.9 km/h 10 km/h 89% 0.0 mm
07:24 7.8 °C 6.1 °C 1008.9 hPa Sur 5.6 km/h 10 km/h 89% 0.0 mm
07:29 7.8 °C 6.1 °C 1008.9 hPa Sur 6.5 km/h 10 km/h 89% 0.0 mm
07:34 7.8 °C 6.1 °C 1008.9 hPa Sur 6 km/h 9.7 km/h 89.2% 0.0 mm
07:39 7.8 °C 6.3 °C 1009.0 hPa SSO 5.8 km/h 9.3 km/h 90% 0.0 mm
07:44 8 °C 6.4 °C 1009.0 hPa Sur 5 km/h 9.7 km/h 89.8% 0.0 mm
07:49 8.1 °C 6.3 °C 1009.0 hPa SSE 4.7 km/h 10 km/h 89% 0.0 mm
07:54 7.9 °C 6.1 °C 1009.2 hPa SSE 5.9 km/h 10 km/h 88.1% 0.0 mm
07:59 7.8 °C 6.1 °C 1009.2 hPa SSE 6.5 km/h 11.1 km/h 88.7% 0.0 mm
08:04 7.8 °C 6.1 °C 1009.2 hPa SSE 6.8 km/h 11.3 km/h 89% 0.0 mm
08:09 7.7 °C 6 °C 1009.2 hPa SSE 6.9 km/h 11.3 km/h 89% 0.0 mm
08:14 7.7 °C 6 °C 1009.1 hPa SSE 6.6 km/h 10.3 km/h 89% 0.0 mm
08:19 7.7 °C 6 °C 1009.1 hPa Sur 6.5 km/h 13 km/h 89% 0.0 mm
08:24 7.7 °C 6 °C 1009.4 hPa Sur 7.2 km/h 12.9 km/h 89% 0.0 mm
08:29 7.7 °C 6.1 °C 1009.4 hPa Sur 7.6 km/h 9.7 km/h 89.6% 0.0 mm
08:34 7.8 °C 6.2 °C 1009.4 hPa Sur 5.8 km/h 10 km/h 90% 0.0 mm
08:39 7.9 °C 6.4 °C 1009.5 hPa SSO 5 km/h 11.1 km/h 90% 0.0 mm
08:44 8.1 °C 6.4 °C 1009.5 hPa Sur 5.6 km/h 11.3 km/h 89.3% 0.0 mm
08:49 8.2 °C 6.5 °C 1009.5 hPa Sur 5.8 km/h 10 km/h 89% 0.0 mm
08:54 8.3 °C 6.5 °C 1009.6 hPa SSE 5.2 km/h 9.7 km/h 88.4% 0.0 mm
08:59 8.3 °C 6.5 °C 1009.6 hPa SSE 5 km/h 9.7 km/h 88% 0.0 mm
09:04 8.4 °C 6.5 °C 1009.6 hPa Sur 5.6 km/h 11.1 km/h 88% 0.0 mm
09:09 8.5 °C 6.5 °C 1009.9 hPa SSO 5.8 km/h 13.7 km/h 87.3% 0.0 mm
09:14 8.6 °C 6.6 °C 1009.9 hPa OSO 7 km/h 14.5 km/h 87% 0.0 mm
09:19 8.7 °C 6.7 °C 1009.9 hPa Oeste 7.6 km/h 11.3 km/h 87% 0.0 mm
09:24 8.7 °C 6.6 °C 1009.9 hPa Oeste 5.8 km/h 10 km/h 86.2% 0.0 mm
09:29 8.8 °C 6.6 °C 1009.9 hPa Oeste 5 km/h 9.7 km/h 86% 0.0 mm
09:34 8.8 °C 6.6 °C 1009.9 hPa OSO 4.8 km/h 9.5 km/h 86% 0.0 mm
09:39 8.8 °C 6.6 °C 1009.9 hPa SSO 4.7 km/h 9.7 km/h 86% 0.0 mm
09:44 8.9 °C 6.7 °C 1009.9 hPa SSO 4.7 km/h 8 km/h 86% 0.0 mm
09:49 9.1 °C 6.9 °C 1009.9 hPa Sur 4.7 km/h 11.1 km/h 86% 0.0 mm
09:54 9.3 °C 7 °C 1010.1 hPa SSE 5.4 km/h 11.3 km/h 86% 0.0 mm
09:59 9.3 °C 7.2 °C 1010.1 hPa SSE 5.8 km/h 9.7 km/h 86.3% 0.0 mm
10:04 9.4 °C 7.2 °C 1010.1 hPa SSE 5.2 km/h 8 km/h 86% 0.0 mm
10:09 9.5 °C 7.4 °C 1010.2 hPa SSE 5 km/h 8 km/h 86.6% 0.0 mm
10:14 9.7 °C 7.3 °C 1010.2 hPa SSE 3.7 km/h 8.4 km/h 85.6% 0.0 mm
10:19 9.7 °C 7 °C 1010.2 hPa SSE 3.2 km/h 13 km/h 83.3% 0.0 mm
10:24 9.7 °C 6.8 °C 1010.2 hPa SSE 6.3 km/h 12.9 km/h 82% 0.0 mm
10:29 9.7 °C 6.8 °C 1009.9 hPa SSE 7.6 km/h 11.3 km/h 82% 0.0 mm
10:34 9.8 °C 6.9 °C 1009.9 hPa Sur 7.1 km/h 9.7 km/h 82% 0.0 mm
10:39 9.9 °C 6.9 °C 1010.0 hPa Sur 6.9 km/h 11.1 km/h 82% 0.0 mm
10:44 10 °C 7.1 °C 1010.0 hPa SSO 6.6 km/h 11.3 km/h 82% 0.0 mm
10:49 10.2 °C 7.1 °C 1010.0 hPa Sur 6.5 km/h 9.7 km/h 81.1% 0.0 mm
10:54 10.3 °C 7.2 °C 1010.0 hPa OSO 5.2 km/h 9.7 km/h 81% 0.0 mm
10:59 10.5 °C 7.3 °C 1010.0 hPa SO 4.7 km/h 8 km/h 80.8% 0.0 mm
11:04 10.7 °C 7.4 °C 1010.0 hPa SO 3.6 km/h 8 km/h 80% 0.0 mm
11:09 10.9 °C 7.4 °C 1010.0 hPa OSO 3.2 km/h 7.4 km/h 79.2% 0.0 mm
11:14 11.1 °C 7.4 °C 1010.0 hPa SSO 3.7 km/h 8.4 km/h 78% 0.0 mm
11:19 11.2 °C 7.5 °C 1010.0 hPa SSO 3.9 km/h 8 km/h 78% 0.0 mm
11:24 11.3 °C 7.4 °C 1010.0 hPa Sur 4.4 km/h 8.4 km/h 77% 0.0 mm
11:29 11.5 °C 7.6 °C 1009.9 hPa SSO 4.7 km/h 8 km/h 76.9% 0.0 mm
11:34 11.7 °C 7.6 °C 1009.9 hPa Oeste 4.1 km/h 10.3 km/h 75.6% 0.0 mm
11:39 11.8 °C 7.5 °C 1009.9 hPa SO 3.9 km/h 11.3 km/h 75% 0.0 mm
11:44 11.9 °C 7.6 °C 1009.8 hPa SO 4.4 km/h 8 km/h 74.9% 0.0 mm
11:49 12 °C 7.5 °C 1009.8 hPa OSO 4.7 km/h 6.4 km/h 74% 0.0 mm
11:54 12.1 °C 7.6 °C 1009.8 hPa OSO 4.1 km/h 8 km/h 74% 0.0 mm
11:59 12.1 °C 7.8 °C 1009.8 hPa OSO 3.9 km/h 8 km/h 74.8% 0.0 mm
12:04 12.2 °C 7.9 °C 1009.8 hPa ONO 3.9 km/h 8 km/h 75% 0.0 mm
12:09 12.2 °C 7.9 °C 1009.8 hPa ONO 3.9 km/h 8 km/h 75% 0.0 mm
12:14 12.2 °C 7.9 °C 1009.6 hPa Oeste 3.9 km/h 8 km/h 75% 0.0 mm
12:19 12.3 °C 7.8 °C 1009.6 hPa SSO 3.9 km/h 7.6 km/h 74.1% 0.0 mm
12:24 12.4 °C 7.9 °C 1009.6 hPa SSO 3.4 km/h 8 km/h 73.9% 0.0 mm
12:29 12.7 °C 7.9 °C 1009.3 hPa SO 3.2 km/h 7.6 km/h 73% 0.0 mm
12:34 12.8 °C 7.9 °C 1009.3 hPa Oeste 3 km/h 9.5 km/h 72.1% 0.0 mm
12:39 12.8 °C 7.9 °C 1009.3 hPa Oeste 2.9 km/h 11.1 km/h 72% 0.0 mm
12:44 12.8 °C 7.9 °C 1009.2 hPa OSO 5.4 km/h 11.3 km/h 72% 0.0 mm
12:49 12.8 °C 7.9 °C 1009.2 hPa OSO 6.5 km/h 11.3 km/h 72% 0.0 mm
12:54 12.9 °C 7.9 °C 1009.2 hPa OSO 5.2 km/h 9.7 km/h 71.7% 0.0 mm
12:59 12.9 °C 7.8 °C 1009.0 hPa SSO 4.7 km/h 8.4 km/h 71.2% 0.0 mm
13:04 13 °C 7.9 °C 1009.0 hPa SSO 4.7 km/h 8 km/h 71% 0.0 mm
13:09 13.1 °C 8 °C 1009.0 hPa Sur 4.7 km/h 8 km/h 71% 0.0 mm
13:14 13.2 °C 8 °C 1008.7 hPa ESE 3.7 km/h 8 km/h 71% 0.0 mm
13:19 13.2 °C 8.1 °C 1008.7 hPa SSE 3.2 km/h 8.4 km/h 71.1% 0.0 mm
13:24 13.2 °C 8.2 °C 1008.7 hPa SE 4.5 km/h 8 km/h 71.5% 0.0 mm
13:29 13.1 °C 8.2 °C 1008.5 hPa SSE 5 km/h 8 km/h 72% 0.0 mm
13:34 13.1 °C 8.2 °C 1008.5 hPa SSE 4.2 km/h 8 km/h 72% 0.0 mm
13:39 13.2 °C 8.3 °C 1008.5 hPa SSE 3.9 km/h 6.4 km/h 72.2% 0.0 mm
13:44 13.2 °C 8.3 °C 1008.5 hPa SSE 3.2 km/h 4.8 km/h 72% 0.0 mm
13:49 13.2 °C 8.3 °C 1008.5 hPa SSE 2.9 km/h 7.4 km/h 72% 0.0 mm
13:54 13.3 °C 8.3 °C 1008.5 hPa Sur 2.9 km/h 8 km/h 72% 0.0 mm
13:59 13.3 °C 8.3 °C 1008.3 hPa NO 2.9 km/h 7.4 km/h 71.8% 0.0 mm
14:04 13.4 °C 8.2 °C 1008.3 hPa NO 3.1 km/h 8 km/h 71% 0.0 mm
14:09 13.4 °C 8.2 °C 1008.3 hPa ONO 3.2 km/h 7.4 km/h 71% 0.0 mm
14:14 13.4 °C 8.3 °C 1008.3 hPa NNO 3.2 km/h 8 km/h 71% 0.0 mm
14:19 13.6 °C 8.4 °C 1008.3 hPa Oeste 3.2 km/h 8 km/h 71% 0.0 mm
14:24 13.6 °C 8.5 °C 1008.3 hPa OSO 3 km/h 6.4 km/h 71% 0.0 mm
14:29 13.7 °C 8.3 °C 1008.2 hPa OSO 2.9 km/h 3.2 km/h 69.9% 0.0 mm
14:34 13.8 °C 8.2 °C 1008.2 hPa OSO 0.9 km/h 1.6 km/h 69% 0.0 mm
14:39 13.9 °C 8.1 °C 1008.2 hPa Calm   6.4 km/h 68% 0.0 mm
14:44 13.9 °C 7.9 °C 1007.9 hPa Sur 1.6 km/h 8 km/h 67% 0.0 mm
14:49 14.1 °C 8 °C 1007.9 hPa SSE 2.2 km/h 8.4 km/h 67% 0.0 mm
14:54 14.1 °C 8.3 °C 1007.9 hPa SSE 4.1 km/h 10 km/h 67.9% 0.0 mm
14:59 14.1 °C 8.5 °C 1007.7 hPa SE 5 km/h 10 km/h 69% 0.0 mm
15:04 14 °C 8.3 °C 1007.7 hPa SE 6 km/h 11.1 km/h 69% 0.0 mm
15:09 13.9 °C 8.3 °C 1007.7 hPa ESE 6.5 km/h 11.3 km/h 69% 0.0 mm
15:14 13.9 °C 8.3 °C 1007.5 hPa SE 6 km/h 9.7 km/h 69.3% 0.0 mm
15:19 14 °C 8.4 °C 1007.5 hPa SSE 5.8 km/h 9.7 km/h 69% 0.0 mm
15:24 14.2 °C 8.6 °C 1007.5 hPa SO 3.3 km/h 7.6 km/h 68.9% 0.0 mm
15:29 14.4 °C 8.4 °C 1007.4 hPa SSO 2.2 km/h 8 km/h 67.2% 0.0 mm
15:34 14.7 °C 8.5 °C 1007.4 hPa SSO 2.7 km/h 8 km/h 66.7% 0.0 mm
15:39 14.9 °C 8.3 °C 1007.4 hPa SSO 2.9 km/h   64.7% 0.0 mm
15:44 15.2 °C 8.4 °C 1007.3 hPa SO 0.9 km/h 5.8 km/h 64% 0.0 mm
15:49 15.3 °C 8.4 °C 1007.3 hPa Calm   8.7 km/h 63.7% 0.0 mm
15:54 15.2 °C 8.5 °C 1007.3 hPa North 3.2 km/h 9.7 km/h 64.2% 0.0 mm
15:59 15.2 °C 8.6 °C 1007.3 hPa NNO 4.7 km/h 9.7 km/h 64.5% 0.0 mm
16:04 15.2 °C 8.3 °C 1007.3 hPa NE 4.7 km/h 8 km/h 63.3% 0.0 mm
16:09 15.2 °C 8.2 °C 1007.4 hPa NE 4.7 km/h 8 km/h 63% 0.0 mm
16:14 15.3 °C 8.3 °C 1007.4 hPa ENE 3.4 km/h 6.9 km/h 63% 0.0 mm
16:19 15.3 °C 8.3 °C 1007.4 hPa NE 2.9 km/h 8.4 km/h 63% 0.0 mm
16:24 15.3 °C 8.3 °C 1007.4 hPa NE 3.1 km/h 8 km/h 63% 0.0 mm
16:29 15.3 °C 8.3 °C 1007.4 hPa ENE 3.2 km/h 8 km/h 63% 0.0 mm
16:34 15.4 °C 8.4 °C 1007.4 hPa NNE 3.2 km/h 8 km/h 63% 0.0 mm
16:39 15.4 °C 8.4 °C 1007.5 hPa NNE 3.2 km/h 11.1 km/h 63% 0.0 mm
16:44 15.3 °C 8.3 °C 1007.5 hPa NE 5 km/h 11.9 km/h 63% 0.0 mm
16:49 15.3 °C 8.4 °C 1007.5 hPa NE 5.8 km/h 11.3 km/h 63.6% 0.0 mm
16:54 15.2 °C 8.5 °C 1007.5 hPa NNE 6.6 km/h 13 km/h 64% 0.0 mm
16:59 15.2 °C 8.4 °C 1007.4 hPa NNE 6.9 km/h 12.9 km/h 64% 0.0 mm
17:04 15.1 °C 8.5 °C 1007.4 hPa NNE 7.4 km/h 11.3 km/h 64.8% 0.0 mm
17:09 15.1 °C 8.5 °C 1007.4 hPa NNE 7.6 km/h 10 km/h 65% 0.0 mm
17:14 14.9 °C 8.5 °C 1007.3 hPa NE 7.1 km/h 13 km/h 65.3% 0.0 mm
17:19 14.9 °C 8.6 °C 1007.3 hPa NE 6.9 km/h 12.9 km/h 66% 0.0 mm
17:24 14.8 °C 8.5 °C 1007.3 hPa NNE 6.9 km/h 13 km/h 66% 0.0 mm
17:29 14.8 °C 8.5 °C 1007.3 hPa NE 6.9 km/h 12.9 km/h 66% 0.0 mm
17:34 14.8 °C 8.5 °C 1007.3 hPa NNE 6.1 km/h 11.1 km/h 66% 0.0 mm
17:39 14.8 °C 8.5 °C 1007.3 hPa NNE 5.8 km/h 11.3 km/h 66% 0.0 mm
17:44 14.7 °C 8.4 °C 1007.3 hPa NNE 6.6 km/h 13 km/h 66% 0.0 mm
17:49 14.7 °C 8.4 °C 1007.3 hPa NNE 6.9 km/h 13 km/h 65.8% 0.0 mm
17:54 14.7 °C 8.4 °C 1007.3 hPa NE 7.4 km/h 13 km/h 65.9% 0.0 mm
17:59 14.6 °C 8.3 °C 1007.3 hPa NE 7.6 km/h 12.9 km/h 66% 0.0 mm
18:04 14.7 °C 8.4 °C 1007.3 hPa NNE 7.6 km/h 11.9 km/h 66% 0.0 mm
18:09 14.7 °C 8.4 °C 1007.3 hPa NNE 7.6 km/h 13.7 km/h 66% 0.0 mm
18:14 14.6 °C 8.5 °C 1007.2 hPa NE 7.1 km/h 14.5 km/h 66.9% 0.0 mm
18:19 14.6 °C 8.6 °C 1007.2 hPa NE 6.9 km/h 9.7 km/h 67% 0.0 mm
18:24 14.5 °C 8.6 °C 1007.2 hPa NE 5.6 km/h 8 km/h 67.9% 0.0 mm
18:29 14.4 °C 8.7 °C 1007.2 hPa NNE 5 km/h 8 km/h 68.6% 0.0 mm
18:34 14.3 °C 8.7 °C 1007.2 hPa North 5 km/h 8.4 km/h 69.1% 0.0 mm
18:39 14.2 °C 8.8 °C 1007.3 hPa North 5 km/h 9.7 km/h 70.1% 0.0 mm
18:44 14.1 °C 9 °C 1007.3 hPa North 4.8 km/h 9.7 km/h 71.2% 0.0 mm
18:49 14 °C 9.1 °C 1007.3 hPa NNE 4.7 km/h 8 km/h 72.3% 0.0 mm
18:54 13.9 °C 9.1 °C 1007.4 hPa NNE 4.7 km/h 8 km/h 73% 0.0 mm
18:59 13.8 °C 9.2 °C 1007.4 hPa NNE 4.7 km/h 8 km/h 74% 0.0 mm
19:04 13.8 °C 9.2 °C 1007.4 hPa NNE 4.7 km/h 8 km/h 74.1% 0.0 mm
19:09 13.7 °C 9.3 °C 1007.4 hPa NNE 4.7 km/h 8 km/h 75% 0.0 mm
19:14 13.7 °C 9.3 °C 1007.4 hPa NNE 3.4 km/h 6.4 km/h 75% 0.0 mm
19:19 13.7 °C 9.4 °C 1007.4 hPa NNE 2.9 km/h 5.8 km/h 75.1% 0.0 mm
19:24 13.7 °C 9.5 °C 1007.4 hPa NNE 2.9 km/h 7.4 km/h 76% 0.0 mm
19:29 13.6 °C 9.5 °C 1007.4 hPa NE 2.9 km/h 8 km/h 76% 0.0 mm
19:34 13.6 °C 9.6 °C 1007.4 hPa NNE 4.1 km/h 8 km/h 77% 0.0 mm
19:39 13.5 °C 9.6 °C 1007.6 hPa ESE 4.7 km/h 8 km/h 77% 0.0 mm
19:44 13.4 °C 9.5 °C 1007.6 hPa SSE 3.6 km/h 8 km/h 77% 0.0 mm
19:49 13.4 °C 9.4 °C 1007.6 hPa SSE 3.2 km/h 8 km/h 77% 0.0 mm
19:54 13.4 °C 9.4 °C 1007.6 hPa SSE 3.2 km/h 6.4 km/h 77% 0.0 mm
19:59 13.4 °C 9.4 °C 1007.5 hPa SSE 3.2 km/h   77% 0.0 mm
20:04 13.4 °C 9.4 °C 1007.5 hPa SSE 0.9 km/h 5 km/h 77% 0.0 mm
20:09 13.4 °C 9.5 °C 1007.5 hPa Calm   6.9 km/h 77.4% 0.0 mm
20:14 13.3 °C 9.6 °C 1007.5 hPa NNE 1.6 km/h 6.4 km/h 78% 0.0 mm
20:19 13.3 °C 9.6 °C 1007.5 hPa NNE 2.2 km/h   78% 0.0 mm
20:24 13.3 °C 9.6 °C 1007.6 hPa NNE 0.7 km/h 5 km/h 78% 0.0 mm
20:29 13.3 °C 9.5 °C 1007.6 hPa Calm   7.4 km/h 77.4% 0.0 mm
20:34 13.4 °C 9.4 °C 1007.6 hPa SSE 2.1 km/h 8 km/h 77% 0.0 mm
20:39 13.4 °C 9.4 °C 1007.7 hPa SSE 2.9 km/h 3.9 km/h 77% 0.0 mm
20:44 13.4 °C 9.4 °C 1007.7 hPa SSE 0.8 km/h 5.6 km/h 77% 0.0 mm
20:49 13.4 °C 9.4 °C 1007.7 hPa Calm   7.4 km/h 77% 0.0 mm
20:54 13.4 °C 9.4 °C 1007.7 hPa Sur 2.3 km/h 8 km/h 77% 0.0 mm
20:59 13.4 °C 9.4 °C 1007.6 hPa SSE 3.2 km/h 9.5 km/h 77% 0.0 mm
21:04 13.4 °C 9.4 °C 1007.6 hPa Sur 4.5 km/h 10 km/h 77% 0.0 mm
21:09 13.3 °C 9.3 °C 1007.8 hPa SSO 5 km/h 9.7 km/h 77% 0.0 mm
21:14 13.3 °C 9.3 °C 1007.8 hPa SSO 5.5 km/h 8.4 km/h 77% 0.0 mm
21:19 13.2 °C 9.3 °C 1007.8 hPa Sur 5.8 km/h 8.4 km/h 77% 0.0 mm
21:24 13.2 °C 9.4 °C 1007.8 hPa SSO 5.2 km/h 8.7 km/h 77.8% 0.0 mm
21:29 13.2 °C 9.4 °C 1007.7 hPa SSE 5 km/h 9.7 km/h 78% 0.0 mm
21:34 13.2 °C 9.4 °C 1007.7 hPa Sur 5 km/h 8 km/h 78% 0.0 mm
21:39 13.2 °C 9.4 °C 1008.0 hPa Sur 5 km/h 8 km/h 78% 0.0 mm
21:44 13.1 °C 9.6 °C 1008.0 hPa Sur 4.2 km/h 8 km/h 79% 0.0 mm
21:49 13.1 °C 9.6 °C 1008.0 hPa OSO 3.9 km/h 7.6 km/h 79% 0.0 mm
21:54 13.1 °C 9.7 °C 1008.0 hPa Oeste 3.9 km/h 8 km/h 79.8% 0.0 mm
21:59 13 °C 9.8 °C 1008.0 hPa OSO 3.9 km/h 8 km/h 80.6% 0.0 mm
22:04 12.9 °C 9.8 °C 1008.0 hPa SO 2.7 km/h 8 km/h 81% 0.0 mm
22:09 12.9 °C 9.9 °C 1008.0 hPa SSE 2.2 km/h 7.4 km/h 81.8% 0.0 mm
22:14 12.9 °C 9.9 °C 1007.9 hPa SSE 2.9 km/h 8 km/h 81.9% 0.0 mm
22:19 12.8 °C 9.8 °C 1007.9 hPa SSE 3.2 km/h 11.1 km/h 82% 0.0 mm
22:24 12.7 °C 9.7 °C 1007.9 hPa SSE 5.4 km/h 11.3 km/h 82.3% 0.0 mm
22:29 12.6 °C 9.8 °C 1007.7 hPa SSE 6.5 km/h 11.3 km/h 83% 0.3 mm
22:34 12.5 °C 9.7 °C 1007.7 hPa SE 6 km/h 9.7 km/h 83.2% 0.3 mm
22:39 12.4 °C 9.8 °C 1007.7 hPa SSE 5.8 km/h 7.4 km/h 84% 0.3 mm
22:44 12.4 °C 9.8 °C 1007.5 hPa Sur 4 km/h 8 km/h 84% 0.3 mm
22:49 12.3 °C 9.7 °C 1007.5 hPa SSO 3.2 km/h 8 km/h 84% 0.3 mm
22:54 12.3 °C 9.8 °C 1007.5 hPa Oeste 3.2 km/h 7.4 km/h 84.6% 0.3 mm
22:59 12.3 °C 9.9 °C 1007.5 hPa ONO 3.2 km/h 8 km/h 85.1% 0.3 mm
23:04 12.3 °C 10 °C 1007.5 hPa ONO 3.7 km/h 8 km/h 86% 0.3 mm
23:09 12.3 °C 10 °C 1007.5 hPa ONO 3.9 km/h 6.4 km/h 86.1% 0.3 mm
23:14 12.2 °C 10.2 °C 1007.4 hPa ONO 2.7 km/h 4.7 km/h 87% 0.3 mm
23:19 12.3 °C 10.2 °C 1007.4 hPa North 2.2 km/h 8.4 km/h 87% 0.3 mm
23:24 12.2 °C 10.1 °C 1007.4 hPa ESE 3.4 km/h 8 km/h 87% 0.3 mm
23:29 12.1 °C 10 °C 1007.3 hPa SE 3.9 km/h 7.6 km/h 87.2% 0.0 mm
23:34 12.1 °C 10.1 °C 1007.3 hPa SE 3.4 km/h 8 km/h 88% 0.0 mm
23:39 12 °C 10.1 °C 1007.3 hPa SE 3.2 km/h 4.8 km/h 88% 0.0 mm
23:44 12 °C 10.1 °C 1007.3 hPa SE 0.9 km/h 7.6 km/h 88% 0.0 mm
23:49 12 °C 10.1 °C 1007.3 hPa Calm   8 km/h 88% 0.0 mm
23:54 12 °C 10.2 °C 1007.3 hPa NO 2.3 km/h 4.8 km/h 88.8% 0.0 mm
23:59 11.9 °C 10.2 °C 1007.3 hPa NO 3.2 km/h 5.6 km/h 89% 0.0 mm
Murcia-Puente Tocinos, España
Compliments of Weather Underground - 3 mb

La estación de MeteoMurcia.com, publica sus datos en los siguientes proyectos:

Weather Underground PWS IMURCIAP2 Meteoclimatic www.awekas.at

W3Counter
Web Analytics